Time;durP1;ratioP1;P1;durP2;ratioP2;P2;SDS_P1;SDS_P2;PMS_P1;PMS_P2;Temp;Humidity;BMP_temperature;BMP_pressure;BME280_temperature;BME280_humidity;BME280_pressure;Samples;Min_cycle;Max_cycle;Signal;HPM_P1;HPM_P2
2023/04/04 00:01:35;;;;;;;5.28;3.10;;;0.30;99.90;;;;;;477671;249;27842;-73
2023/04/04 00:03:36;;;;;;;3.70;2.70;;;0.30;99.90;;;;;;477650;249;27996;-74
2023/04/04 00:05:38;;;;;;;4.60;2.97;;;0.20;99.90;;;;;;477579;249;28041;-74
2023/04/04 00:07:39;;;;;;;2.92;2.47;;;0.10;99.90;;;;;;477654;249;27465;-74
2023/04/04 00:09:40;;;;;;;5.07;3.05;;;0.20;99.90;;;;;;477622;249;27469;-74
2023/04/04 00:11:41;;;;;;;6.55;3.10;;;0.10;99.90;;;;;;477631;249;27466;-74
2023/04/04 00:13:44;;;;;;;4.60;3.40;;;0.20;99.90;;;;;;477605;249;27513;-73
2023/04/04 00:15:44;;;;;;;3.55;2.60;;;0.10;99.90;;;;;;477548;249;27694;-75
2023/04/04 00:17:45;;;;;;;6.25;2.87;;;0.10;99.90;;;;;;477592;249;27435;-74
2023/04/04 00:19:46;;;;;;;6.90;3.03;;;0.10;99.90;;;;;;477595;249;27475;-74
2023/04/04 00:21:49;;;;;;;5.20;2.87;;;0.10;99.90;;;;;;477568;249;27398;-74
2023/04/04 00:23:49;;;;;;;3.60;2.62;;;0.00;99.90;;;;;;477532;249;27544;-74
2023/04/04 00:25:51;;;;;;;6.35;3.17;;;-0.10;99.90;;;;;;477618;249;27425;-74
2023/04/04 00:27:52;;;;;;;3.60;3.30;;;-0.10;99.90;;;;;;477645;249;27854;-74
2023/04/04 00:29:53;;;;;;;3.28;2.72;;;0.00;99.90;;;;;;477624;249;28007;-74
2023/04/04 00:31:54;;;;;;;2.70;2.50;;;-0.10;99.90;;;;;;477618;249;28027;-74
2023/04/04 00:33:55;;;;;;;4.30;2.75;;;-0.10;99.90;;;;;;477533;249;27509;-73
2023/04/04 00:35:56;;;;;;;4.72;3.00;;;-0.10;99.90;;;;;;477572;249;27422;-74
2023/04/04 00:37:58;;;;;;;12.85;3.45;;;-0.10;99.90;;;;;;477632;249;27457;-74
2023/04/04 00:39:59;;;;;;;5.95;3.35;;;-0.20;99.90;;;;;;477609;249;27452;-74
2023/04/04 00:42:00;;;;;;;3.35;2.75;;;-0.20;99.90;;;;;;477608;249;27390;-73
2023/04/04 00:44:01;;;;;;;10.65;2.92;;;-0.20;99.90;;;;;;477608;249;27502;-74
2023/04/04 00:46:03;;;;;;;3.05;2.80;;;-0.30;99.90;;;;;;477588;249;28052;-74
2023/04/04 00:48:04;;;;;;;4.45;2.87;;;-0.30;99.90;;;;;;477658;249;28030;-73
2023/04/04 00:50:05;;;;;;;2.78;2.42;;;-0.30;99.90;;;;;;477634;249;28999;-74
2023/04/04 00:52:06;;;;;;;2.60;2.40;;;-0.30;99.90;;;;;;477619;249;27473;-74
2023/04/04 00:54:08;;;;;;;4.32;3.45;;;-0.30;99.90;;;;;;477631;249;27452;-73
2023/04/04 00:56:09;;;;;;;6.90;3.72;;;-0.30;99.90;;;;;;477599;249;27410;-74
2023/04/04 00:58:10;;;;;;;5.78;3.47;;;-0.30;99.90;;;;;;477650;249;27473;-74
2023/04/04 01:00:11;;;;;;;5.87;3.30;;;-0.30;99.90;;;;;;477643;249;27464;-73
2023/04/04 01:02:13;;;;;;;4.62;3.22;;;-0.30;99.90;;;;;;477653;249;27486;-73
2023/04/04 01:04:14;;;;;;;4.70;3.03;;;-0.40;99.90;;;;;;477620;249;27545;-74
2023/04/04 01:06:15;;;;;;;4.97;3.05;;;-0.40;99.90;;;;;;477584;249;28960;-74
2023/04/04 01:08:16;;;;;;;3.17;2.80;;;-0.40;99.90;;;;;;477655;249;27956;-74
2023/04/04 01:10:18;;;;;;;7.15;3.17;;;-0.40;99.90;;;;;;477692;249;28028;-74
2023/04/04 01:12:19;;;;;;;3.58;3.28;;;-0.40;99.90;;;;;;477657;249;27405;-74
2023/04/04 01:14:20;;;;;;;3.55;3.08;;;-0.40;99.90;;;;;;477586;249;27422;-75
2023/04/04 01:16:23;;;;;;;3.45;3.15;;;-0.50;99.90;;;;;;477602;249;27390;-74
2023/04/04 01:18:23;;;;;;;3.28;2.95;;;-0.50;99.90;;;;;;477611;249;27414;-73
2023/04/04 01:20:24;;;;;;;5.05;3.08;;;-0.50;99.90;;;;;;477646;249;27436;-74
2023/04/04 01:22:25;;;;;;;4.82;2.78;;;-0.50;99.90;;;;;;477642;249;27453;-74
2023/04/04 01:24:27;;;;;;;6.03;2.87;;;-0.50;99.90;;;;;;477560;249;27436;-74
2023/04/04 01:26:28;;;;;;;4.12;2.95;;;-0.60;99.90;;;;;;477605;249;28712;-74
2023/04/04 01:28:29;;;;;;;3.53;3.22;;;-0.60;99.90;;;;;;477648;249;27930;-74
2023/04/04 01:30:30;;;;;;;7.37;3.65;;;-0.60;99.90;;;;;;477650;249;27997;-73
2023/04/04 01:32:32;;;;;;;3.75;3.10;;;-0.60;99.90;;;;;;477638;249;27441;-74
2023/04/04 01:34:33;;;;;;;6.37;3.70;;;-0.60;99.90;;;;;;477555;249;27511;-74
2023/04/04 01:36:34;;;;;;;3.62;3.22;;;-0.60;99.90;;;;;;477592;249;27417;-74
2023/04/04 01:38:35;;;;;;;3.03;2.80;;;-0.60;99.90;;;;;;477647;249;27385;-73
2023/04/04 01:40:37;;;;;;;4.40;3.50;;;-0.60;99.90;;;;;;477616;249;27434;-74
2023/04/04 01:42:38;;;;;;;4.40;3.72;;;-0.70;99.90;;;;;;477614;249;27456;-74
2023/04/04 01:44:39;;;;;;;5.53;3.17;;;-0.70;99.90;;;;;;477553;249;27468;-74
2023/04/04 01:46:40;;;;;;;5.40;3.20;;;-0.70;99.90;;;;;;477576;249;28685;-73
2023/04/04 01:48:42;;;;;;;5.28;3.55;;;-0.70;99.90;;;;;;477634;249;27931;-74
2023/04/04 01:50:43;;;;;;;5.45;3.22;;;-0.70;99.90;;;;;;477605;249;27979;-74
2023/04/04 01:52:44;;;;;;;5.45;3.37;;;-0.80;99.90;;;;;;477631;249;27461;-74
2023/04/04 01:54:45;;;;;;;6.68;3.58;;;-0.80;99.90;;;;;;477579;249;27449;-74
2023/04/04 01:56:47;;;;;;;3.58;3.10;;;-0.80;99.90;;;;;;477647;249;27409;-74
2023/04/04 01:58:48;;;;;;;5.50;3.28;;;-0.80;99.90;;;;;;477679;249;27389;-74
2023/04/04 02:00:49;;;;;;;4.20;2.97;;;-0.80;99.90;;;;;;477660;249;27453;-74
2023/04/04 02:02:51;;;;;;;5.18;3.17;;;-0.80;99.90;;;;;;477624;249;27473;-74
2023/04/04 02:04:52;;;;;;;5.62;3.30;;;-0.80;99.90;;;;;;477602;249;27454;-74
2023/04/04 02:06:55;;;;;;;5.28;3.10;;;-0.90;99.90;;;;;;477631;249;28637;-74
2023/04/04 02:08:55;;;;;;;4.07;3.22;;;-0.90;99.90;;;;;;477541;249;28011;-74
2023/04/04 02:10:55;;;;;;;3.37;2.92;;;-0.90;99.90;;;;;;477654;249;27946;-73
2023/04/04 02:12:57;;;;;;;6.10;3.22;;;-1.00;99.90;;;;;;477634;249;27389;-74
2023/04/04 02:14:59;;;;;;;4.25;3.20;;;-1.00;99.90;;;;;;477585;249;27453;-74
2023/04/04 02:16:59;;;;;;;5.03;3.05;;;-1.00;99.90;;;;;;477596;249;27436;-74
2023/04/04 02:19:00;;;;;;;4.25;3.15;;;-1.00;99.90;;;;;;477643;249;27451;-74
2023/04/04 02:21:02;;;;;;;4.87;3.17;;;-1.00;99.90;;;;;;477663;249;27555;-73
2023/04/04 02:23:03;;;;;;;4.37;3.33;;;-1.00;99.90;;;;;;477636;249;27418;-74
2023/04/04 02:25:04;;;;;;;3.33;3.03;;;-1.10;99.90;;;;;;477520;249;27570;-73
2023/04/04 02:27:05;;;;;;;4.53;3.00;;;-1.00;99.90;;;;;;477184;249;28224;-73
2023/04/04 02:29:07;;;;;;;3.33;3.00;;;-1.10;99.90;;;;;;476904;249;29444;-73
2023/04/04 02:31:08;;;;;;;4.72;3.50;;;-1.10;99.90;;;;;;476976;249;27620;-73
2023/04/04 02:33:09;;;;;;;3.40;3.20;;;-1.10;99.90;;;;;;477320;249;27395;-73
2023/04/04 02:35:10;;;;;;;6.45;3.30;;;-1.10;99.90;;;;;;477598;249;27430;-73
2023/04/04 02:37:12;;;;;;;13.10;7.75;;;-1.10;99.90;;;;;;477694;248;27532;-74
2023/04/04 02:39:13;;;;;;;6.65;4.80;;;-1.10;99.90;;;;;;477687;249;27399;-74
2023/04/04 02:41:14;;;;;;;5.87;3.85;;;-1.20;99.90;;;;;;477671;249;27521;-74
2023/04/04 02:43:15;;;;;;;3.72;3.28;;;-1.20;99.90;;;;;;477683;249;27390;-74
2023/04/04 02:45:17;;;;;;;3.90;3.45;;;-1.20;99.90;;;;;;477602;249;27929;-74
2023/04/04 02:47:18;;;;;;;3.80;3.10;;;-1.20;99.90;;;;;;477680;249;27955;-74
2023/04/04 02:49:19;;;;;;;3.10;2.80;;;-1.20;99.90;;;;;;477674;249;28979;-73
2023/04/04 02:51:21;;;;;;;9.15;3.20;;;-1.30;99.90;;;;;;477658;249;27461;-74
2023/04/04 02:53:22;;;;;;;4.10;3.25;;;-1.30;99.90;;;;;;477644;249;27474;-73
2023/04/04 02:55:23;;;;;;;7.90;3.25;;;-1.30;99.90;;;;;;477611;249;27440;-74
2023/04/04 02:57:24;;;;;;;4.65;3.22;;;-1.30;99.90;;;;;;477692;249;27440;-73
2023/04/04 02:59:25;;;;;;;4.37;3.40;;;-1.30;99.90;;;;;;477665;249;27475;-73
2023/04/04 03:01:27;;;;;;;3.33;3.03;;;-1.40;99.90;;;;;;477646;249;27428;-73
2023/04/04 03:03:28;;;;;;;6.95;3.45;;;-1.40;99.90;;;;;;477639;249;27523;-73
2023/04/04 03:05:30;;;;;;;6.90;3.80;;;-1.30;99.90;;;;;;477616;249;27981;-73
2023/04/04 03:07:30;;;;;;;8.43;3.85;;;-1.40;99.90;;;;;;477671;249;27991;-74
2023/04/04 03:09:32;;;;;;;4.57;3.40;;;-1.40;99.90;;;;;;477645;249;29007;-73
2023/04/04 03:11:33;;;;;;;10.38;4.12;;;-1.40;99.90;;;;;;477691;249;27452;-74
2023/04/04 03:13:34;;;;;;;6.85;3.50;;;-1.40;99.90;;;;;;477675;249;27434;-73
2023/04/04 03:15:35;;;;;;;7.00;3.67;;;-1.40;99.90;;;;;;477664;249;27524;-73
2023/04/04 03:17:37;;;;;;;5.85;3.62;;;-1.40;99.90;;;;;;477647;249;27490;-74
2023/04/04 03:19:38;;;;;;;4.28;3.20;;;-1.50;99.90;;;;;;477595;249;27445;-74
2023/04/04 03:21:39;;;;;;;4.40;3.70;;;-1.50;99.90;;;;;;477662;249;27398;-74
2023/04/04 03:23:41;;;;;;;5.55;3.97;;;-1.50;99.90;;;;;;477621;249;27406;-74
2023/04/04 03:25:42;;;;;;;6.75;4.90;;;-1.50;99.90;;;;;;477571;249;27894;-74
2023/04/04 03:27:43;;;;;;;6.32;4.35;;;-1.50;99.90;;;;;;477663;249;27422;-74
2023/04/04 03:29:44;;;;;;;6.45;3.85;;;-1.50;99.90;;;;;;477644;249;27444;-73
2023/04/04 03:31:45;;;;;;;4.47;3.30;;;-1.40;99.90;;;;;;477626;249;27425;-74
2023/04/04 03:33:47;;;;;;;3.35;2.90;;;-1.50;99.90;;;;;;477662;249;27473;-74
2023/04/04 03:35:48;;;;;;;4.72;3.05;;;-1.50;99.90;;;;;;477581;249;27414;-73
2023/04/04 03:37:49;;;;;;;3.62;3.28;;;-1.50;99.90;;;;;;477672;249;27596;-73
2023/04/04 03:39:51;;;;;;;7.35;3.92;;;-1.50;99.90;;;;;;477627;249;27394;-74
2023/04/04 03:41:52;;;;;;;8.05;4.40;;;-1.60;99.90;;;;;;477655;249;28040;-73
2023/04/04 03:43:53;;;;;;;6.85;3.80;;;-1.60;99.90;;;;;;477605;249;28926;-73
2023/04/04 03:45:54;;;;;;;6.55;3.67;;;-1.60;99.90;;;;;;477591;249;27454;-73
2023/04/04 03:47:56;;;;;;;4.97;3.85;;;-1.60;99.90;;;;;;477652;249;27425;-73
2023/04/04 03:49:57;;;;;;;5.43;4.30;;;-1.60;99.90;;;;;;477634;249;27401;-73
2023/04/04 03:51:58;;;;;;;4.72;3.75;;;-1.70;99.90;;;;;;477614;249;27493;-74
2023/04/04 03:53:59;;;;;;;6.35;4.12;;;-1.70;99.90;;;;;;477624;249;27414;-73
2023/04/04 03:56:01;;;;;;;5.80;4.35;;;-1.60;99.90;;;;;;477608;249;27406;-73
2023/04/04 03:58:02;;;;;;;7.75;4.97;;;-1.70;99.90;;;;;;477680;249;27477;-74
2023/04/04 04:00:03;;;;;;;4.97;4.07;;;-1.80;99.90;;;;;;477655;249;27400;-74
2023/04/04 04:02:04;;;;;;;6.30;4.10;;;-1.70;99.90;;;;;;477639;249;27925;-74
2023/04/04 04:04:06;;;;;;;6.62;3.80;;;-1.70;99.90;;;;;;477655;249;27839;-74
2023/04/04 04:06:07;;;;;;;6.65;4.57;;;-1.70;99.90;;;;;;477618;249;27474;-74
2023/04/04 04:08:08;;;;;;;5.82;4.12;;;-1.70;99.90;;;;;;477666;249;27521;-73
2023/04/04 04:10:09;;;;;;;4.53;3.65;;;-1.70;99.90;;;;;;477655;249;27402;-74
2023/04/04 04:12:11;;;;;;;10.82;4.72;;;-1.70;99.90;;;;;;477657;249;27486;-74
2023/04/04 04:14:12;;;;;;;5.82;3.45;;;-1.70;99.90;;;;;;477664;249;27426;-74
2023/04/04 04:16:13;;;;;;;5.53;3.60;;;-1.80;99.90;;;;;;477646;249;27412;-74
2023/04/04 04:18:15;;;;;;;5.68;4.03;;;-1.80;99.90;;;;;;477676;249;27430;-73
2023/04/04 04:20:16;;;;;;;5.70;4.15;;;-1.70;99.90;;;;;;477653;249;27828;-74
2023/04/04 04:22:17;;;;;;;7.57;3.60;;;-1.80;99.90;;;;;;477627;249;28001;-74
2023/04/04 04:24:18;;;;;;;6.60;4.10;;;-1.80;99.90;;;;;;477632;249;29180;-73
2023/04/04 04:26:20;;;;;;;6.43;4.75;;;-1.70;99.90;;;;;;477641;249;27518;-73
2023/04/04 04:28:21;;;;;;;6.50;3.83;;;-1.70;99.90;;;;;;477631;249;27509;-73
2023/04/04 04:30:22;;;;;;;5.25;4.05;;;-1.80;99.90;;;;;;477584;249;27476;-73
2023/04/04 04:32:25;;;;;;;3.60;3.30;;;-1.80;99.90;;;;;;477574;249;27543;-74
2023/04/04 04:34:24;;;;;;;4.82;3.83;;;-1.80;99.90;;;;;;477512;249;27526;-73
2023/04/04 04:36:26;;;;;;;6.70;4.12;;;-1.80;99.90;;;;;;477622;249;27466;-73
2023/04/04 04:38:27;;;;;;;7.85;4.07;;;-1.80;99.90;;;;;;477636;249;27508;-73
2023/04/04 04:40:28;;;;;;;4.47;3.85;;;-1.80;99.90;;;;;;477618;249;27890;-73
2023/04/04 04:42:30;;;;;;;6.45;4.43;;;-1.80;99.90;;;;;;477634;249;28012;-73
2023/04/04 04:44:31;;;;;;;4.45;3.53;;;-1.80;99.90;;;;;;477647;249;28502;-74
2023/04/04 04:46:32;;;;;;;4.22;3.83;;;-1.80;99.90;;;;;;477656;249;27472;-73
2023/04/04 04:48:33;;;;;;;4.75;3.92;;;-1.90;99.90;;;;;;477646;249;27429;-74
2023/04/04 04:50:35;;;;;;;6.32;4.43;;;-1.80;99.90;;;;;;477612;249;27540;-74
2023/04/04 04:52:36;;;;;;;4.60;4.20;;;-1.90;99.90;;;;;;477615;249;27434;-73
2023/04/04 04:54:37;;;;;;;4.95;4.45;;;-1.90;99.90;;;;;;477624;249;27531;-74
2023/04/04 04:56:38;;;;;;;5.80;5.12;;;-1.90;99.90;;;;;;477627;249;27501;-73
2023/04/04 04:58:39;;;;;;;6.90;4.90;;;-1.90;99.90;;;;;;477632;249;27525;-73
2023/04/04 05:00:41;;;;;;;7.90;4.72;;;-1.90;99.90;;;;;;477603;249;27855;-74
2023/04/04 05:02:42;;;;;;;7.60;4.50;;;-1.90;99.90;;;;;;477629;249;28005;-74
2023/04/04 05:04:44;;;;;;;6.47;4.22;;;-1.90;99.90;;;;;;477622;249;27945;-75
2023/04/04 05:06:44;;;;;;;8.52;4.30;;;-1.90;99.90;;;;;;477629;249;27449;-74
2023/04/04 05:08:46;;;;;;;5.22;3.97;;;-1.90;99.90;;;;;;477647;249;27432;-74
2023/04/04 05:10:47;;;;;;;5.15;4.53;;;-1.90;99.90;;;;;;477619;249;27488;-73
2023/04/04 05:12:48;;;;;;;6.85;4.37;;;-1.90;99.90;;;;;;477632;249;27470;-73
2023/04/04 05:14:49;;;;;;;5.72;4.07;;;-1.90;99.90;;;;;;477463;249;27434;-74
2023/04/04 05:16:51;;;;;;;6.18;4.20;;;-1.90;99.90;;;;;;477614;249;27464;-74
2023/04/04 05:18:52;;;;;;;4.15;3.72;;;-1.90;99.90;;;;;;477644;249;27433;-74
2023/04/04 05:20:53;;;;;;;7.75;4.65;;;-1.80;99.90;;;;;;477621;249;27881;-73
2023/04/04 05:22:55;;;;;;;5.03;4.60;;;-1.80;99.90;;;;;;477661;249;28035;-74
2023/04/04 05:24:56;;;;;;;7.80;4.25;;;-1.80;99.90;;;;;;477590;249;27948;-74
2023/04/04 05:26:57;;;;;;;5.03;4.50;;;-1.80;99.90;;;;;;477652;249;27446;-74
2023/04/04 05:28:59;;;;;;;6.45;4.75;;;-1.80;99.90;;;;;;477626;249;27451;-73
2023/04/04 05:30:59;;;;;;;5.22;4.53;;;-1.80;99.90;;;;;;477587;249;27485;-73
2023/04/04 05:33:01;;;;;;;9.10;4.20;;;-1.80;99.90;;;;;;477657;249;27484;-73
2023/04/04 05:35:02;;;;;;;5.95;4.10;;;-1.80;99.90;;;;;;477610;249;27517;-74
2023/04/04 05:37:03;;;;;;;5.43;3.80;;;-1.80;99.90;;;;;;477638;249;27472;-73
2023/04/04 05:39:05;;;;;;;6.57;4.70;;;-1.80;99.90;;;;;;477643;249;27456;-74
2023/04/04 05:41:06;;;;;;;4.90;4.50;;;-1.80;99.90;;;;;;477656;249;28762;-74
2023/04/04 05:43:08;;;;;;;5.75;4.50;;;-1.70;99.90;;;;;;477671;249;28944;-74
2023/04/04 05:45:09;;;;;;;5.47;3.87;;;-1.80;99.90;;;;;;477597;249;27985;-73
2023/04/04 05:47:09;;;;;;;4.93;4.30;;;-1.70;99.90;;;;;;477666;249;27465;-74
2023/04/04 05:49:11;;;;;;;4.90;4.40;;;-1.70;99.90;;;;;;477667;249;27445;-74
2023/04/04 05:51:12;;;;;;;5.70;4.35;;;-1.70;99.90;;;;;;477621;249;27430;-74
2023/04/04 05:53:14;;;;;;;7.32;4.53;;;-1.70;99.90;;;;;;477665;249;27501;-73
2023/04/04 05:55:15;;;;;;;8.15;4.05;;;-1.70;99.90;;;;;;477483;249;27516;-73
2023/04/04 05:57:16;;;;;;;5.30;4.20;;;-1.60;99.90;;;;;;477652;249;27397;-74
2023/04/04 05:59:17;;;;;;;4.12;3.80;;;-1.60;99.90;;;;;;477609;249;27504;-73
2023/04/04 06:01:18;;;;;;;8.07;5.07;;;-1.50;99.90;;;;;;477655;249;27997;-73
2023/04/04 06:03:20;;;;;;;5.57;5.05;;;-1.50;99.90;;;;;;477644;249;29041;-73
2023/04/04 06:05:21;;;;;;;9.02;5.60;;;-1.40;99.90;;;;;;477602;249;27533;-74
2023/04/04 06:07:22;;;;;;;6.72;5.10;;;-1.40;99.90;;;;;;477608;249;27397;-73
2023/04/04 06:09:23;;;;;;;14.07;7.47;;;-1.40;99.90;;;;;;477615;249;27462;-74
2023/04/04 06:11:25;;;;;;;9.90;5.55;;;-1.30;99.90;;;;;;477667;249;27947;-73
2023/04/04 06:13:26;;;;;;;6.32;4.57;;;-1.30;99.90;;;;;;477667;249;27470;-74
2023/04/04 06:15:27;;;;;;;5.95;3.90;;;-1.20;99.90;;;;;;477589;249;27525;-74
2023/04/04 06:17:28;;;;;;;7.53;4.50;;;-1.20;99.90;;;;;;477614;249;27398;-73
2023/04/04 06:19:30;;;;;;;4.05;3.65;;;-1.10;99.90;;;;;;477612;249;27958;-73
2023/04/04 06:21:31;;;;;;;4.37;3.85;;;-1.00;99.90;;;;;;477650;249;27957;-74
2023/04/04 06:23:32;;;;;;;4.03;3.58;;;-1.00;99.90;;;;;;477635;249;27888;-74
2023/04/04 06:25:33;;;;;;;6.70;3.70;;;-1.00;99.90;;;;;;477558;249;27457;-74
2023/04/04 06:27:35;;;;;;;7.72;4.40;;;-0.90;99.90;;;;;;477598;249;27505;-74
2023/04/04 06:29:36;;;;;;;7.03;4.37;;;-0.80;99.90;;;;;;477622;249;27426;-74
2023/04/04 06:31:37;;;;;;;4.57;4.05;;;-0.80;99.90;;;;;;477656;249;27464;-74
2023/04/04 06:33:38;;;;;;;3.60;3.30;;;-0.70;99.90;;;;;;477626;249;27382;-74
2023/04/04 06:35:40;;;;;;;7.20;4.10;;;-0.60;99.90;;;;;;477533;249;27426;-74
2023/04/04 06:37:41;;;;;;;6.87;3.90;;;-0.60;99.90;;;;;;477628;249;27392;-73
2023/04/04 06:39:42;;;;;;;4.40;3.90;;;-0.50;99.90;;;;;;477652;249;27918;-74
2023/04/04 06:41:43;;;;;;;4.53;3.65;;;-0.40;99.90;;;;;;477660;249;27927;-74
2023/04/04 06:43:48;;;;;;;3.65;3.45;;;-0.40;99.90;;;;;;477649;249;27554;-74
2023/04/04 06:45:46;;;;;;;3.62;3.10;;;-0.30;99.90;;;;;;477187;249;27438;-74
2023/04/04 06:47:48;;;;;;;3.75;3.33;;;-0.20;99.90;;;;;;477617;249;27493;-74
2023/04/04 06:49:48;;;;;;;5.35;4.03;;;-0.20;99.90;;;;;;477586;249;27465;-74
2023/04/04 06:51:50;;;;;;;4.43;3.37;;;-0.20;99.90;;;;;;477655;249;27540;-74
2023/04/04 06:53:51;;;;;;;4.35;3.40;;;-0.10;99.90;;;;;;477644;249;27397;-74
2023/04/04 06:55:52;;;;;;;4.20;3.47;;;-0.10;99.90;;;;;;477539;249;27902;-74
2023/04/04 06:57:53;;;;;;;3.90;3.50;;;0.00;99.90;;;;;;477621;249;27864;-74
2023/04/04 06:59:55;;;;;;;6.10;3.97;;;0.00;99.90;;;;;;477646;249;27935;-74
2023/04/04 07:01:56;;;;;;;5.28;3.70;;;0.10;99.90;;;;;;477646;249;27437;-74
2023/04/04 07:03:57;;;;;;;6.45;3.70;;;0.10;99.90;;;;;;477647;249;27445;-74
2023/04/04 07:05:58;;;;;;;4.12;3.50;;;0.20;99.90;;;;;;477559;249;27414;-73
2023/04/04 07:08:00;;;;;;;5.75;4.15;;;0.40;99.90;;;;;;477626;249;27418;-73
2023/04/04 07:10:01;;;;;;;5.25;3.80;;;0.50;99.90;;;;;;477664;249;27382;-73
2023/04/04 07:12:02;;;;;;;5.00;3.50;;;0.50;99.90;;;;;;477663;249;27441;-74
2023/04/04 07:14:03;;;;;;;4.37;3.15;;;0.60;99.90;;;;;;477647;249;27478;-74
2023/04/04 07:16:05;;;;;;;7.62;3.60;;;0.70;99.90;;;;;;477602;249;27473;-74
2023/04/04 07:18:06;;;;;;;5.78;3.10;;;0.70;99.90;;;;;;477686;249;27501;-74
2023/04/04 07:20:07;;;;;;;3.50;3.20;;;0.80;99.90;;;;;;477672;249;27402;-74
2023/04/04 07:22:08;;;;;;;6.30;3.53;;;0.80;99.90;;;;;;477690;249;27996;-74
2023/04/04 07:24:10;;;;;;;4.28;3.40;;;0.80;99.90;;;;;;477660;249;27957;-74
2023/04/04 07:26:11;;;;;;;4.35;3.15;;;0.80;99.90;;;;;;477617;249;28010;-74
2023/04/04 07:28:12;;;;;;;3.80;3.30;;;0.80;99.90;;;;;;477682;249;27964;-74
2023/04/04 07:30:13;;;;;;;3.22;2.92;;;1.00;99.90;;;;;;477695;249;27430;-74
2023/04/04 07:32:15;;;;;;;10.48;3.47;;;1.10;99.90;;;;;;477654;249;27442;-74
2023/04/04 07:34:16;;;;;;;4.22;3.08;;;1.10;99.90;;;;;;477603;249;27385;-74
2023/04/04 07:36:17;;;;;;;4.07;3.67;;;1.20;99.90;;;;;;477605;249;27457;-74
2023/04/04 07:38:18;;;;;;;5.00;3.30;;;1.10;99.90;;;;;;477645;249;27417;-74
2023/04/04 07:40:20;;;;;;;4.53;3.42;;;1.20;99.90;;;;;;477645;249;27412;-74
2023/04/04 07:42:24;;;;;;;3.33;2.87;;;1.40;99.90;;;;;;477650;249;27450;-74
2023/04/04 07:44:25;;;;;;;3.87;3.30;;;1.50;99.90;;;;;;477561;249;27444;-74
2023/04/04 07:46:27;;;;;;;7.47;3.47;;;1.60;99.90;;;;;;477639;249;28608;-74
2023/04/04 07:48:28;;;;;;;3.58;3.03;;;1.70;99.90;;;;;;477667;249;27969;-74
2023/04/04 07:50:29;;;;;;;4.55;3.12;;;1.80;99.90;;;;;;477656;249;28991;-74
2023/04/04 07:52:30;;;;;;;3.28;2.83;;;1.80;99.90;;;;;;477632;249;28000;-74
2023/04/04 07:54:32;;;;;;;3.25;3.00;;;1.80;99.90;;;;;;477561;249;27457;-74
2023/04/04 07:56:33;;;;;;;3.45;2.97;;;1.80;99.90;;;;;;477620;249;27387;-74
2023/04/04 07:58:34;;;;;;;4.40;3.40;;;1.80;99.90;;;;;;477643;249;27894;-74
2023/04/04 08:00:35;;;;;;;8.00;3.10;;;1.80;99.90;;;;;;477566;249;27444;-74
2023/04/04 08:02:37;;;;;;;4.35;2.85;;;1.70;99.90;;;;;;477614;249;27480;-74
2023/04/04 08:04:38;;;;;;;3.50;3.20;;;1.80;99.90;;;;;;477532;249;27440;-74
2023/04/04 08:06:39;;;;;;;5.65;3.20;;;1.90;99.90;;;;;;477621;249;27479;-74
2023/04/04 08:08:41;;;;;;;3.58;3.17;;;2.00;99.90;;;;;;477657;249;27513;-74
2023/04/04 08:10:42;;;;;;;4.60;3.15;;;2.00;99.90;;;;;;477635;249;27465;-74
2023/04/04 08:12:43;;;;;;;3.60;2.92;;;2.00;98.70;;;;;;477627;249;27398;-74
2023/04/04 08:14:44;;;;;;;3.30;2.53;;;2.00;99.90;;;;;;477562;249;27548;-74
2023/04/04 08:16:46;;;;;;;5.62;3.10;;;2.10;99.90;;;;;;477631;249;27437;-74
2023/04/04 08:18:47;;;;;;;4.95;3.30;;;2.20;99.90;;;;;;477658;249;27469;-74
2023/04/04 08:20:48;;;;;;;3.78;2.92;;;2.10;99.00;;;;;;477656;249;27465;-74
2023/04/04 08:22:49;;;;;;;3.03;2.72;;;2.10;99.90;;;;;;477620;248;27432;-74
2023/04/04 08:24:51;;;;;;;6.40;3.00;;;2.30;99.90;;;;;;477537;249;27917;-74
2023/04/04 08:26:52;;;;;;;6.78;2.80;;;2.20;97.70;;;;;;477654;249;28013;-74
2023/04/04 08:28:53;;;;;;;3.35;3.00;;;2.20;98.60;;;;;;477651;249;28051;-74
2023/04/04 08:30:54;;;;;;;3.53;3.00;;;2.20;97.00;;;;;;477650;249;28189;-74
2023/04/04 08:32:56;;;;;;;8.55;3.47;;;2.20;97.60;;;;;;477638;249;27438;-74
2023/04/04 08:34:57;;;;;;;4.28;2.97;;;2.20;97.60;;;;;;477541;249;27468;-74
2023/04/04 08:36:58;;;;;;;10.05;3.12;;;2.40;99.20;;;;;;477655;249;27583;-74
2023/04/04 08:38:59;;;;;;;4.82;2.80;;;2.50;98.00;;;;;;477657;249;27390;-73
2023/04/04 08:41:00;;;;;;;4.93;3.00;;;2.50;97.50;;;;;;477651;249;27520;-74
2023/04/04 08:43:02;;;;;;;3.67;3.08;;;2.50;96.60;;;;;;477635;249;27480;-74
2023/04/04 08:45:03;;;;;;;7.03;3.40;;;2.50;96.80;;;;;;477517;249;27537;-74
2023/04/04 08:47:04;;;;;;;2.95;2.75;;;2.60;98.10;;;;;;477641;249;27473;-74
2023/04/04 08:49:05;;;;;;;5.12;2.70;;;2.60;96.50;;;;;;477656;249;27457;-74
2023/04/04 08:51:07;;;;;;;5.57;3.40;;;2.60;97.60;;;;;;477629;249;28084;-74
2023/04/04 08:53:08;;;;;;;4.87;3.25;;;2.70;98.80;;;;;;477544;249;27960;-74
2023/04/04 08:55:10;;;;;;;7.78;3.50;;;2.70;99.40;;;;;;477449;249;27873;-74
2023/04/04 08:57:10;;;;;;;6.32;2.97;;;2.80;96.60;;;;;;477568;249;27921;-74
2023/04/04 08:59:14;;;;;;;3.30;3.00;;;2.80;96.50;;;;;;477624;249;27519;-74
2023/04/04 09:01:15;;;;;;;3.45;3.10;;;3.00;96.30;;;;;;477477;249;27524;-74
2023/04/04 09:03:14;;;;;;;2.87;2.60;;;2.90;94.70;;;;;;477555;249;27425;-74
2023/04/04 09:05:15;;;;;;;4.40;2.90;;;2.90;96.70;;;;;;477585;249;27452;-74
2023/04/04 09:07:17;;;;;;;5.00;3.50;;;2.90;96.70;;;;;;477633;249;27513;-74
2023/04/04 09:09:18;;;;;;;3.72;3.42;;;2.90;95.40;;;;;;477617;249;27403;-74
2023/04/04 09:11:19;;;;;;;4.65;3.05;;;2.80;95.90;;;;;;477627;249;27452;-74
2023/04/04 09:13:21;;;;;;;8.43;3.08;;;2.90;97.00;;;;;;477650;249;27406;-74
2023/04/04 09:15:22;;;;;;;6.80;3.90;;;3.20;97.80;;;;;;477600;249;27484;-74
2023/04/04 09:17:23;;;;;;;8.25;3.20;;;3.30;97.00;;;;;;477659;249;27466;-74
2023/04/04 09:19:24;;;;;;;5.82;3.45;;;3.40;96.80;;;;;;477647;249;28003;-74
2023/04/04 09:21:28;;;;;;;4.93;3.50;;;3.40;96.80;;;;;;477655;249;27922;-74
2023/04/04 09:23:27;;;;;;;7.93;3.65;;;3.30;96.50;;;;;;477477;249;29734;-74
2023/04/04 09:25:28;;;;;;;9.35;3.55;;;3.10;95.80;;;;;;477646;249;27936;-74
2023/04/04 09:27:29;;;;;;;4.12;3.12;;;3.20;96.90;;;;;;477653;249;27418;-74
2023/04/04 09:29:30;;;;;;;3.97;3.30;;;3.20;95.50;;;;;;477649;249;27389;-74
2023/04/04 09:31:32;;;;;;;4.57;3.20;;;3.10;95.50;;;;;;477625;249;27436;-74
2023/04/04 09:33:33;;;;;;;4.20;3.67;;;3.10;96.80;;;;;;477566;249;27487;-74
2023/04/04 09:35:34;;;;;;;5.40;3.72;;;3.30;96.50;;;;;;477621;249;27422;-74
2023/04/04 09:37:35;;;;;;;6.57;3.83;;;3.60;95.80;;;;;;477652;249;27525;-74
2023/04/04 09:39:37;;;;;;;4.15;3.20;;;3.50;95.30;;;;;;477648;249;27420;-74
2023/04/04 09:41:38;;;;;;;5.93;4.10;;;3.30;95.60;;;;;;477621;249;27462;-74
2023/04/04 09:43:39;;;;;;;4.28;3.47;;;3.60;96.00;;;;;;477620;249;27401;-74
2023/04/04 09:45:40;;;;;;;5.90;4.35;;;3.70;96.60;;;;;;477592;249;27397;-74
2023/04/04 09:47:42;;;;;;;4.78;3.72;;;3.60;96.00;;;;;;477628;249;27926;-74
2023/04/04 09:49:43;;;;;;;4.90;3.20;;;3.60;96.00;;;;;;477613;249;27938;-74
2023/04/04 09:51:44;;;;;;;4.70;3.30;;;3.80;96.30;;;;;;477585;249;27995;-75
2023/04/04 09:53:45;;;;;;;3.37;3.08;;;3.80;94.90;;;;;;477613;249;27840;-74
2023/04/04 09:55:47;;;;;;;3.40;3.10;;;3.90;94.90;;;;;;477572;249;27398;-74
2023/04/04 09:57:48;;;;;;;4.32;3.20;;;3.80;95.50;;;;;;477642;249;27428;-74
2023/04/04 09:59:50;;;;;;;5.93;3.83;;;3.80;94.90;;;;;;477620;249;27449;-74
2023/04/04 10:01:52;;;;;;;4.78;3.50;;;3.90;94.80;;;;;;477622;249;27445;-74
2023/04/04 10:03:53;;;;;;;4.28;3.87;;;3.90;94.40;;;;;;477569;249;27400;-74
2023/04/04 10:05:53;;;;;;;4.68;4.05;;;3.90;94.30;;;;;;477538;249;27410;-74
2023/04/04 10:07:54;;;;;;;4.28;3.45;;;3.80;93.80;;;;;;477547;249;27516;-74
2023/04/04 10:09:56;;;;;;;5.22;3.00;;;4.00;94.20;;;;;;477617;249;27533;-74
2023/04/04 10:11:57;;;;;;;3.72;3.42;;;3.90;93.40;;;;;;477597;249;27465;-74
2023/04/04 10:13:58;;;;;;;8.15;3.30;;;4.00;94.30;;;;;;477618;249;28643;-74
2023/04/04 10:15:59;;;;;;;3.78;3.40;;;4.20;94.20;;;;;;477601;249;27869;-74
2023/04/04 10:18:00;;;;;;;4.80;3.15;;;4.20;93.60;;;;;;477611;249;28020;-74
2023/04/04 10:20:02;;;;;;;5.93;3.58;;;4.30;94.60;;;;;;477622;249;27386;-74
2023/04/04 10:22:03;;;;;;;3.33;3.12;;;4.10;92.50;;;;;;477575;249;27442;-74
2023/04/04 10:24:07;;;;;;;4.35;3.33;;;4.20;94.20;;;;;;477600;249;27480;-74
2023/04/04 10:26:06;;;;;;;5.20;3.22;;;4.30;93.00;;;;;;477371;249;27441;-75
2023/04/04 10:28:07;;;;;;;5.50;3.72;;;3.90;91.20;;;;;;477631;249;27513;-74
2023/04/04 10:30:08;;;;;;;3.78;3.47;;;3.80;92.80;;;;;;477634;249;27461;-74
2023/04/04 10:32:09;;;;;;;5.25;3.70;;;4.20;93.30;;;;;;477633;249;27506;-75
2023/04/04 10:34:11;;;;;;;6.47;3.75;;;4.40;94.00;;;;;;477626;249;27505;-74